sensor_id;sensor_type;location;lat;lon;timestamp;pressure;altitude;pressure_sealevel;temperature;humidity
71361;BME280;59166;48.908;1.870;2023-03-14T00:00:38;98138.56;;;10.50;100.00
71361;BME280;59166;48.908;1.870;2023-03-14T00:05:39;98132.81;;;10.43;100.00
71361;BME280;59166;48.908;1.870;2023-03-14T00:10:42;98127.25;;;10.39;100.00
71361;BME280;59166;48.908;1.870;2023-03-14T00:15:43;98126.44;;;10.39;100.00
71361;BME280;59166;48.908;1.870;2023-03-14T00:20:43;98129.47;;;10.46;100.00
71361;BME280;59166;48.908;1.870;2023-03-14T00:25:46;98129.59;;;10.41;100.00
71361;BME280;59166;48.908;1.870;2023-03-14T00:30:46;98122.00;;;10.43;100.00
71361;BME280;59166;48.908;1.870;2023-03-14T00:35:53;98124.22;;;10.41;100.00
71361;BME280;59166;48.908;1.870;2023-03-14T00:40:55;98123.41;;;10.40;100.00
71361;BME280;59166;48.908;1.870;2023-03-14T00:45:57;98124.38;;;10.35;100.00
71361;BME280;59166;48.908;1.870;2023-03-14T00:50:58;98115.63;;;10.39;100.00
71361;BME280;59166;48.908;1.870;2023-03-14T00:56:02;98126.72;;;10.37;100.00
71361;BME280;59166;48.908;1.870;2023-03-14T01:01:06;98116.13;;;10.41;100.00
71361;BME280;59166;48.908;1.870;2023-03-14T01:06:09;98124.53;;;10.39;100.00
71361;BME280;59166;48.908;1.870;2023-03-14T01:11:13;98118.34;;;10.39;100.00
71361;BME280;59166;48.908;1.870;2023-03-14T01:16:16;98123.25;;;10.37;100.00
71361;BME280;59166;48.908;1.870;2023-03-14T01:21:19;98119.13;;;10.39;100.00
71361;BME280;59166;48.908;1.870;2023-03-14T01:26:23;98117.88;;;10.37;100.00
71361;BME280;59166;48.908;1.870;2023-03-14T01:31:25;98112.47;;;10.37;100.00
71361;BME280;59166;48.908;1.870;2023-03-14T01:36:27;98108.53;;;10.43;100.00
71361;BME280;59166;48.908;1.870;2023-03-14T01:41:29;98111.50;;;10.41;100.00
71361;BME280;59166;48.908;1.870;2023-03-14T01:46:35;98111.06;;;10.48;100.00
71361;BME280;59166;48.908;1.870;2023-03-14T01:51:42;98105.19;;;10.46;100.00
71361;BME280;59166;48.908;1.870;2023-03-14T01:56:50;98112.28;;;10.33;100.00
71361;BME280;59166;48.908;1.870;2023-03-14T02:02:30;98114.03;;;10.29;100.00
71361;BME280;59166;48.908;1.870;2023-03-14T02:07:36;98120.03;;;10.26;100.00
71361;BME280;59166;48.908;1.870;2023-03-14T02:12:41;98113.03;;;10.25;100.00
71361;BME280;59166;48.908;1.870;2023-03-14T02:17:43;98115.91;;;10.28;100.00
71361;BME280;59166;48.908;1.870;2023-03-14T02:22:45;98118.16;;;10.35;100.00
71361;BME280;59166;48.908;1.870;2023-03-14T02:27:49;98103.88;;;10.34;100.00
71361;BME280;59166;48.908;1.870;2023-03-14T02:32:52;98109.88;;;10.23;100.00
71361;BME280;59166;48.908;1.870;2023-03-14T02:37:57;98104.13;;;10.16;100.00
71361;BME280;59166;48.908;1.870;2023-03-14T02:43:02;98102.22;;;10.16;100.00
71361;BME280;59166;48.908;1.870;2023-03-14T02:48:06;98115.22;;;10.14;100.00
71361;BME280;59166;48.908;1.870;2023-03-14T02:53:08;98113.31;;;10.15;100.00
71361;BME280;59166;48.908;1.870;2023-03-14T02:58:10;98114.59;;;10.17;100.00
71361;BME280;59166;48.908;1.870;2023-03-14T03:03:11;98114.78;;;10.21;100.00
71361;BME280;59166;48.908;1.870;2023-03-14T03:08:12;98113.50;;;10.18;100.00
71361;BME280;59166;48.908;1.870;2023-03-14T03:13:14;98117.97;;;10.23;100.00
71361;BME280;59166;48.908;1.870;2023-03-14T03:18:15;98120.97;;;10.21;100.00
71361;BME280;59166;48.908;1.870;2023-03-14T03:23:16;98128.75;;;10.23;100.00
71361;BME280;59166;48.908;1.870;2023-03-14T03:28:19;98131.00;;;10.29;100.00
71361;BME280;59166;48.908;1.870;2023-03-14T03:33:19;98124.50;;;10.30;100.00
71361;BME280;59166;48.908;1.870;2023-03-14T03:38:20;98137.34;;;10.33;100.00
71361;BME280;59166;48.908;1.870;2023-03-14T03:43:23;98136.75;;;10.37;100.00
71361;BME280;59166;48.908;1.870;2023-03-14T03:48:23;98142.75;;;10.33;100.00
71361;BME280;59166;48.908;1.870;2023-03-14T03:53:24;98150.84;;;10.33;100.00
71361;BME280;59166;48.908;1.870;2023-03-14T03:58:27;98154.97;;;10.31;100.00
71361;BME280;59166;48.908;1.870;2023-03-14T04:03:28;98157.50;;;10.27;100.00
71361;BME280;59166;48.908;1.870;2023-03-14T04:08:29;98175.09;;;10.25;100.00
71361;BME280;59166;48.908;1.870;2023-03-14T04:13:32;98187.19;;;10.27;100.00
71361;BME280;59166;48.908;1.870;2023-03-14T04:18:33;98203.38;;;10.27;100.00
71361;BME280;59166;48.908;1.870;2023-03-14T04:23:34;98233.38;;;10.26;100.00
71361;BME280;59166;48.908;1.870;2023-03-14T04:28:36;98264.03;;;9.86;100.00
71361;BME280;59166;48.908;1.870;2023-03-14T04:33:38;98298.56;;;9.48;100.00
71361;BME280;59166;48.908;1.870;2023-03-14T04:38:39;98313.44;;;8.91;100.00
71361;BME280;59166;48.908;1.870;2023-03-14T04:43:42;98352.53;;;8.56;100.00
71361;BME280;59166;48.908;1.870;2023-03-14T04:48:43;98357.56;;;8.44;100.00
71361;BME280;59166;48.908;1.870;2023-03-14T04:53:44;98381.84;;;8.39;100.00
71361;BME280;59166;48.908;1.870;2023-03-14T04:58:46;98400.78;;;8.34;100.00
71361;BME280;59166;48.908;1.870;2023-03-14T05:03:47;98428.81;;;8.27;100.00
71361;BME280;59166;48.908;1.870;2023-03-14T05:08:48;98429.28;;;8.16;100.00
71361;BME280;59166;48.908;1.870;2023-03-14T05:13:51;98453.03;;;8.09;100.00
71361;BME280;59166;48.908;1.870;2023-03-14T05:18:52;98479.63;;;8.10;100.00
71361;BME280;59166;48.908;1.870;2023-03-14T05:23:53;98500.63;;;8.08;100.00
71361;BME280;59166;48.908;1.870;2023-03-14T05:28:56;98515.16;;;8.07;100.00
71361;BME280;59166;48.908;1.870;2023-03-14T05:33:57;98527.19;;;7.91;97.63
71361;BME280;59166;48.908;1.870;2023-03-14T05:38:58;98563.88;;;7.77;96.25
71361;BME280;59166;48.908;1.870;2023-03-14T05:44:00;98575.31;;;7.64;96.01
71361;BME280;59166;48.908;1.870;2023-03-14T05:49:01;98609.50;;;7.58;96.89
71361;BME280;59166;48.908;1.870;2023-03-14T05:54:02;98621.13;;;7.49;95.49
71361;BME280;59166;48.908;1.870;2023-03-14T05:59:05;98641.59;;;7.40;96.20
71361;BME280;59166;48.908;1.870;2023-03-14T06:04:06;98643.03;;;7.32;94.17
71361;BME280;59166;48.908;1.870;2023-03-14T06:09:07;98687.38;;;7.19;91.94
71361;BME280;59166;48.908;1.870;2023-03-14T06:14:09;98690.63;;;7.16;93.10
71361;BME280;59166;48.908;1.870;2023-03-14T06:19:10;98713.22;;;7.10;92.74
71361;BME280;59166;48.908;1.870;2023-03-14T06:24:11;98735.81;;;7.04;93.46
71361;BME280;59166;48.908;1.870;2023-03-14T06:29:14;98747.63;;;7.03;91.74
71361;BME280;59166;48.908;1.870;2023-03-14T06:34:20;98766.72;;;7.02;90.55
71361;BME280;59166;48.908;1.870;2023-03-14T06:39:21;98769.13;;;6.98;89.63
71361;BME280;59166;48.908;1.870;2023-03-14T06:44:30;98804.03;;;6.93;90.29
71361;BME280;59166;48.908;1.870;2023-03-14T06:49:34;98822.03;;;6.93;89.87
71361;BME280;59166;48.908;1.870;2023-03-14T06:54:51;98825.53;;;6.88;92.17
71361;BME280;59166;48.908;1.870;2023-03-14T06:59:57;98837.88;;;6.89;90.49
71361;BME280;59166;48.908;1.870;2023-03-14T07:04:59;98857.47;;;6.80;91.38
71361;BME280;59166;48.908;1.870;2023-03-14T07:10:04;98877.63;;;6.77;91.38
71361;BME280;59166;48.908;1.870;2023-03-14T07:15:08;98902.28;;;6.79;90.54
71361;BME280;59166;48.908;1.870;2023-03-14T07:20:13;98906.59;;;6.85;89.68
71361;BME280;59166;48.908;1.870;2023-03-14T07:25:17;98932.88;;;7.08;86.48
71361;BME280;59166;48.908;1.870;2023-03-14T07:30:40;98953.47;;;7.43;88.07
71361;BME280;59166;48.908;1.870;2023-03-14T07:35:45;98973.06;;;7.59;88.86
71361;BME280;59166;48.908;1.870;2023-03-14T07:40:50;98997.78;;;7.66;85.53
71361;BME280;59166;48.908;1.870;2023-03-14T07:45:56;98997.19;;;7.79;88.64
71361;BME280;59166;48.908;1.870;2023-03-14T07:51:06;99019.78;;;7.83;87.42
71361;BME280;59166;48.908;1.870;2023-03-14T07:56:16;99013.00;;;7.91;85.40
71361;BME280;59166;48.908;1.870;2023-03-14T08:01:23;99022.34;;;8.08;85.16
71361;BME280;59166;48.908;1.870;2023-03-14T08:06:27;99010.75;;;8.18;84.96
71361;BME280;59166;48.908;1.870;2023-03-14T08:11:28;99030.63;;;8.27;87.45
71361;BME280;59166;48.908;1.870;2023-03-14T08:16:30;99043.72;;;8.39;84.92
71361;BME280;59166;48.908;1.870;2023-03-14T08:21:31;99048.06;;;8.35;84.89
71361;BME280;59166;48.908;1.870;2023-03-14T08:26:31;99057.78;;;8.74;83.68
71361;BME280;59166;48.908;1.870;2023-03-14T08:31:37;99057.75;;;9.28;81.07
71361;BME280;59166;48.908;1.870;2023-03-14T08:36:38;99074.44;;;9.88;80.57
71361;BME280;59166;48.908;1.870;2023-03-14T08:41:44;99087.00;;;9.40;81.58
71361;BME280;59166;48.908;1.870;2023-03-14T08:47:05;99093.00;;;8.88;82.76
71361;BME280;59166;48.908;1.870;2023-03-14T08:52:11;99097.41;;;8.69;85.09
71361;BME280;59166;48.908;1.870;2023-03-14T08:57:15;99104.38;;;8.75;84.18
71361;BME280;59166;48.908;1.870;2023-03-14T09:02:29;99112.25;;;8.61;83.15
71361;BME280;59166;48.908;1.870;2023-03-14T09:07:33;99128.91;;;8.73;82.25
71361;BME280;59166;48.908;1.870;2023-03-14T09:12:40;99145.59;;;8.70;81.00
71361;BME280;59166;48.908;1.870;2023-03-14T09:17:51;99155.22;;;8.87;83.78
71361;BME280;59166;48.908;1.870;2023-03-14T09:22:52;99187.56;;;9.36;79.83
71361;BME280;59166;48.908;1.870;2023-03-14T09:27:53;99197.53;;;8.91;82.63
71361;BME280;59166;48.908;1.870;2023-03-14T09:32:55;99210.69;;;8.82;85.40
71361;BME280;59166;48.908;1.870;2023-03-14T09:37:55;99225.97;;;7.72;88.63
71361;BME280;59166;48.908;1.870;2023-03-14T09:42:56;99251.00;;;6.91;95.98
71361;BME280;59166;48.908;1.870;2023-03-14T09:47:59;99256.50;;;6.64;100.00
71361;BME280;59166;48.908;1.870;2023-03-14T09:53:04;99261.66;;;6.75;100.00
71361;BME280;59166;48.908;1.870;2023-03-14T09:58:10;99278.78;;;7.21;98.93
71361;BME280;59166;48.908;1.870;2023-03-14T10:03:23;99283.78;;;8.25;98.44
71361;BME280;59166;48.908;1.870;2023-03-14T10:08:25;99290.97;;;8.65;92.49
71361;BME280;59166;48.908;1.870;2023-03-14T10:13:26;99310.41;;;8.37;92.61
71361;BME280;59166;48.908;1.870;2023-03-14T10:18:31;99310.13;;;8.49;93.71
71361;BME280;59166;48.908;1.870;2023-03-14T10:23:33;99340.00;;;8.42;89.52
71361;BME280;59166;48.908;1.870;2023-03-14T10:28:37;99367.03;;;7.60;98.86
71361;BME280;59166;48.908;1.870;2023-03-14T10:33:40;99352.13;;;7.27;100.00
71361;BME280;59166;48.908;1.870;2023-03-14T10:38:41;99356.94;;;8.22;100.00
71361;BME280;59166;48.908;1.870;2023-03-14T10:43:41;99358.00;;;8.87;90.48
71361;BME280;59166;48.908;1.870;2023-03-14T10:48:44;99366.22;;;9.46;90.25
71361;BME280;59166;48.908;1.870;2023-03-14T10:53:46;99368.44;;;9.88;83.46
71361;BME280;59166;48.908;1.870;2023-03-14T10:58:50;99383.13;;;10.11;82.90
71361;BME280;59166;48.908;1.870;2023-03-14T11:03:56;99388.88;;;10.43;72.81
71361;BME280;59166;48.908;1.870;2023-03-14T11:09:03;99392.44;;;10.67;69.12
71361;BME280;59166;48.908;1.870;2023-03-14T11:14:17;99403.72;;;10.79;67.53
71361;BME280;59166;48.908;1.870;2023-03-14T11:19:51;99409.59;;;11.15;67.88
71361;BME280;59166;48.908;1.870;2023-03-14T11:25:12;99412.84;;;11.65;64.07
71361;BME280;59166;48.908;1.870;2023-03-14T11:30:20;99408.56;;;11.35;63.53
71361;BME280;59166;48.908;1.870;2023-03-14T11:35:30;99410.50;;;12.01;64.26
71361;BME280;59166;48.908;1.870;2023-03-14T11:40:32;99422.09;;;12.44;59.40
71361;BME280;59166;48.908;1.870;2023-03-14T11:45:35;99436.28;;;12.54;57.05
71361;BME280;59166;48.908;1.870;2023-03-14T11:50:39;99425.94;;;12.19;51.70
71361;BME280;59166;48.908;1.870;2023-03-14T11:55:42;99436.25;;;11.98;52.81
71361;BME280;59166;48.908;1.870;2023-03-14T12:00:44;99456.63;;;11.67;57.37
71361;BME280;59166;48.908;1.870;2023-03-14T12:05:58;99460.47;;;11.08;58.13
71361;BME280;59166;48.908;1.870;2023-03-14T12:11:03;99457.91;;;11.51;57.38
71361;BME280;59166;48.908;1.870;2023-03-14T12:16:07;99460.84;;;11.54;54.76
71361;BME280;59166;48.908;1.870;2023-03-14T12:21:21;99461.59;;;11.07;58.22
71361;BME280;59166;48.908;1.870;2023-03-14T12:26:24;99463.22;;;11.03;59.83
71361;BME280;59166;48.908;1.870;2023-03-14T12:31:40;99461.91;;;11.01;56.84
71361;BME280;59166;48.908;1.870;2023-03-14T12:37:12;99473.75;;;11.33;58.46
71361;BME280;59166;48.908;1.870;2023-03-14T12:42:19;99483.53;;;11.29;60.05
71361;BME280;59166;48.908;1.870;2023-03-14T12:59:24;99480.47;;;11.41;62.35
71361;BME280;59166;48.908;1.870;2023-03-14T13:04:31;99476.94;;;11.41;64.12
71361;BME280;59166;48.908;1.870;2023-03-14T13:09:52;99509.25;;;10.93;64.19
71361;BME280;59166;48.908;1.870;2023-03-14T13:14:57;99519.47;;;8.31;91.11
71361;BME280;59166;48.908;1.870;2023-03-14T13:20:03;99560.81;;;7.58;96.02
71361;BME280;59166;48.908;1.870;2023-03-14T13:25:07;99560.31;;;7.29;96.63
71361;BME280;59166;48.908;1.870;2023-03-14T13:30:35;99534.69;;;8.01;98.14
71361;BME280;59166;48.908;1.870;2023-03-14T13:35:41;99548.53;;;8.35;96.63
71361;BME280;59166;48.908;1.870;2023-03-14T13:40:43;99545.88;;;8.40;92.22
71361;BME280;59166;48.908;1.870;2023-03-14T13:45:49;99558.88;;;8.63;94.24
71361;BME280;59166;48.908;1.870;2023-03-14T13:50:53;99555.75;;;9.01;97.03
71361;BME280;59166;48.908;1.870;2023-03-14T13:55:54;99557.84;;;9.75;91.19
71361;BME280;59166;48.908;1.870;2023-03-14T14:01:02;99563.53;;;9.68;89.60
71361;BME280;59166;48.908;1.870;2023-03-14T14:06:06;99577.00;;;9.63;85.34
71361;BME280;59166;48.908;1.870;2023-03-14T14:11:11;99580.75;;;9.93;82.50
71361;BME280;59166;48.908;1.870;2023-03-14T14:16:20;99585.16;;;10.38;80.64
71361;BME280;59166;48.908;1.870;2023-03-14T14:21:24;99598.72;;;10.22;77.14
71361;BME280;59166;48.908;1.870;2023-03-14T14:26:26;99599.44;;;10.48;83.51
71361;BME280;59166;48.908;1.870;2023-03-14T14:31:29;99616.91;;;10.61;78.38
71361;BME280;59166;48.908;1.870;2023-03-14T14:36:32;99607.91;;;10.91;77.42
71361;BME280;59166;48.908;1.870;2023-03-14T14:41:40;99623.00;;;10.97;74.76
71361;BME280;59166;48.908;1.870;2023-03-14T14:46:43;99629.59;;;11.24;72.76
71361;BME280;59166;48.908;1.870;2023-03-14T14:51:48;99633.25;;;10.35;73.40
71361;BME280;59166;48.908;1.870;2023-03-14T14:56:50;99646.56;;;9.87;77.79
71361;BME280;59166;48.908;1.870;2023-03-14T15:01:57;99650.06;;;9.47;79.63
71361;BME280;59166;48.908;1.870;2023-03-14T15:06:58;99687.75;;;9.01;83.04
71361;BME280;59166;48.908;1.870;2023-03-14T15:11:59;99694.25;;;8.11;92.75
71361;BME280;59166;48.908;1.870;2023-03-14T15:17:02;99707.56;;;7.33;96.19
71361;BME280;59166;48.908;1.870;2023-03-14T15:22:04;99711.44;;;7.15;98.36
71361;BME280;59166;48.908;1.870;2023-03-14T15:27:08;99717.53;;;7.32;100.00
71361;BME280;59166;48.908;1.870;2023-03-14T15:32:15;99733.41;;;7.97;100.00
71361;BME280;59166;48.908;1.870;2023-03-14T15:37:16;99738.00;;;8.34;96.57
71361;BME280;59166;48.908;1.870;2023-03-14T15:42:17;99728.41;;;8.53;91.17
71361;BME280;59166;48.908;1.870;2023-03-14T15:47:19;99733.16;;;8.82;92.93
71361;BME280;59166;48.908;1.870;2023-03-14T15:52:20;99737.03;;;9.07;94.00
71361;BME280;59166;48.908;1.870;2023-03-14T15:57:21;99742.78;;;9.30;90.94
71361;BME280;59166;48.908;1.870;2023-03-14T16:02:23;99742.81;;;9.46;89.07
71361;BME280;59166;48.908;1.870;2023-03-14T16:07:24;99747.16;;;9.52;88.11
71361;BME280;59166;48.908;1.870;2023-03-14T16:12:25;99759.97;;;9.19;81.91
71361;BME280;59166;48.908;1.870;2023-03-14T16:17:27;99775.69;;;8.86;77.83
71361;BME280;59166;48.908;1.870;2023-03-14T16:22:28;99787.19;;;8.66;78.46
71361;BME280;59166;48.908;1.870;2023-03-14T16:27:29;99788.53;;;8.63;79.43
71361;BME280;59166;48.908;1.870;2023-03-14T16:32:31;99803.56;;;8.59;74.66
71361;BME280;59166;48.908;1.870;2023-03-14T16:37:32;99813.75;;;8.52;74.37
71361;BME280;59166;48.908;1.870;2023-03-14T16:42:33;99820.53;;;8.23;75.01
71361;BME280;59166;48.908;1.870;2023-03-14T16:47:35;99839.72;;;8.05;78.55
71361;BME280;59166;48.908;1.870;2023-03-14T16:52:36;99849.25;;;7.91;79.74
71361;BME280;59166;48.908;1.870;2023-03-14T16:57:37;99859.00;;;7.70;80.43
71361;BME280;59166;48.908;1.870;2023-03-14T17:02:39;99864.75;;;7.57;80.44
71361;BME280;59166;48.908;1.870;2023-03-14T17:07:40;99894.69;;;7.44;81.27
71361;BME280;59166;48.908;1.870;2023-03-14T17:12:40;99907.38;;;7.26;80.84
71361;BME280;59166;48.908;1.870;2023-03-14T17:17:43;99918.31;;;7.20;81.83
71361;BME280;59166;48.908;1.870;2023-03-14T17:22:44;99936.78;;;7.16;84.77
71361;BME280;59166;48.908;1.870;2023-03-14T17:27:44;99944.97;;;7.26;84.38
71361;BME280;59166;48.908;1.870;2023-03-14T17:32:47;99961.44;;;7.30;83.83
71361;BME280;59166;48.908;1.870;2023-03-14T17:37:47;99972.59;;;7.22;82.47
71361;BME280;59166;48.908;1.870;2023-03-14T17:42:48;99986.22;;;7.15;85.06
71361;BME280;59166;48.908;1.870;2023-03-14T17:47:53;99997.13;;;7.09;83.87
71361;BME280;59166;48.908;1.870;2023-03-14T17:52:54;100009.72;;;7.08;85.53
71361;BME280;59166;48.908;1.870;2023-03-14T17:57:54;100023.78;;;6.99;85.35
71361;BME280;59166;48.908;1.870;2023-03-14T18:02:57;100037.13;;;6.94;87.35
71361;BME280;59166;48.908;1.870;2023-03-14T18:07:57;100047.78;;;6.89;89.95
71361;BME280;59166;48.908;1.870;2023-03-14T18:12:58;100057.81;;;6.93;88.91
71361;BME280;59166;48.908;1.870;2023-03-14T18:18:01;100072.38;;;6.97;88.41
71361;BME280;59166;48.908;1.870;2023-03-14T18:23:01;100083.69;;;6.99;87.92
71361;BME280;59166;48.908;1.870;2023-03-14T18:28:02;100095.31;;;6.88;87.01
71361;BME280;59166;48.908;1.870;2023-03-14T18:33:05;100110.09;;;6.74;89.71
71361;BME280;59166;48.908;1.870;2023-03-14T18:38:06;100121.69;;;6.63;88.55
71361;BME280;59166;48.908;1.870;2023-03-14T18:43:07;100125.69;;;6.49;89.81
71361;BME280;59166;48.908;1.870;2023-03-14T18:48:09;100143.66;;;6.37;90.36
71361;BME280;59166;48.908;1.870;2023-03-14T18:53:10;100145.31;;;6.26;90.57
71361;BME280;59166;48.908;1.870;2023-03-14T18:58:11;100157.59;;;6.10;91.86
71361;BME280;59166;48.908;1.870;2023-03-14T19:03:13;100166.19;;;6.01;92.54
71361;BME280;59166;48.908;1.870;2023-03-14T19:08:14;100176.94;;;5.89;93.93
71361;BME280;59166;48.908;1.870;2023-03-14T19:13:15;100184.28;;;5.82;94.27
71361;BME280;59166;48.908;1.870;2023-03-14T19:18:18;100184.50;;;5.69;94.30
71361;BME280;59166;48.908;1.870;2023-03-14T19:23:19;100194.16;;;5.58;94.64
71361;BME280;59166;48.908;1.870;2023-03-14T19:28:20;100193.06;;;5.48;95.33
71361;BME280;59166;48.908;1.870;2023-03-14T19:33:42;100204.81;;;5.35;95.57
71361;BME280;59166;48.908;1.870;2023-03-14T19:38:43;100218.16;;;5.23;94.97
71361;BME280;59166;48.908;1.870;2023-03-14T19:43:44;100228.13;;;5.16;96.04
71361;BME280;59166;48.908;1.870;2023-03-14T19:48:47;100229.94;;;5.04;96.32
71361;BME280;59166;48.908;1.870;2023-03-14T19:53:48;100235.31;;;5.04;96.02
71361;BME280;59166;48.908;1.870;2023-03-14T19:58:49;100244.38;;;5.03;96.93
71361;BME280;59166;48.908;1.870;2023-03-14T20:03:51;100255.91;;;5.04;97.07
71361;BME280;59166;48.908;1.870;2023-03-14T20:08:52;100267.13;;;5.12;98.43
71361;BME280;59166;48.908;1.870;2023-03-14T20:13:53;100270.09;;;5.22;99.09
71361;BME280;59166;48.908;1.870;2023-03-14T20:18:55;100274.09;;;5.32;98.78
71361;BME280;59166;48.908;1.870;2023-03-14T20:23:56;100286.56;;;5.38;99.02
71361;BME280;59166;48.908;1.870;2023-03-14T20:28:57;100289.59;;;5.41;98.22
71361;BME280;59166;48.908;1.870;2023-03-14T20:33:59;100292.66;;;5.45;98.53
71361;BME280;59166;48.908;1.870;2023-03-14T20:39:00;100302.44;;;5.51;98.88
71361;BME280;59166;48.908;1.870;2023-03-14T20:44:02;100305.75;;;5.53;98.17
71361;BME280;59166;48.908;1.870;2023-03-14T20:49:04;100314.59;;;5.53;98.58
71361;BME280;59166;48.908;1.870;2023-03-14T20:54:05;100324.50;;;5.53;98.09
71361;BME280;59166;48.908;1.870;2023-03-14T20:59:06;100323.88;;;5.51;98.15
71361;BME280;59166;48.908;1.870;2023-03-14T21:04:08;100325.38;;;5.47;97.61
71361;BME280;59166;48.908;1.870;2023-03-14T21:09:09;100332.56;;;5.35;96.57
71361;BME280;59166;48.908;1.870;2023-03-14T21:14:10;100342.84;;;5.19;96.57
71361;BME280;59166;48.908;1.870;2023-03-14T21:19:13;100343.13;;;4.93;96.24
71361;BME280;59166;48.908;1.870;2023-03-14T21:24:14;100351.75;;;4.77;95.44
71361;BME280;59166;48.908;1.870;2023-03-14T21:29:14;100356.78;;;4.67;94.92
71361;BME280;59166;48.908;1.870;2023-03-14T21:34:17;100360.59;;;4.53;96.01
71361;BME280;59166;48.908;1.870;2023-03-14T21:39:21;100366.06;;;4.40;96.33
71361;BME280;59166;48.908;1.870;2023-03-14T21:44:28;100364.72;;;4.31;97.72
71361;BME280;59166;48.908;1.870;2023-03-14T21:49:31;100370.13;;;4.24;98.50
71361;BME280;59166;48.908;1.870;2023-03-14T21:54:36;100366.63;;;4.24;98.81
71361;BME280;59166;48.908;1.870;2023-03-14T21:59:41;100376.88;;;4.27;99.78
71361;BME280;59166;48.908;1.870;2023-03-14T22:04:44;100370.38;;;4.16;98.45
71361;BME280;59166;48.908;1.870;2023-03-14T22:09:45;100376.41;;;4.11;97.59
71361;BME280;59166;48.908;1.870;2023-03-14T22:14:46;100368.19;;;4.06;98.95
71361;BME280;59166;48.908;1.870;2023-03-14T22:19:49;100380.78;;;3.99;98.39
71361;BME280;59166;48.908;1.870;2023-03-14T22:24:50;100391.13;;;3.89;99.20
71361;BME280;59166;48.908;1.870;2023-03-14T22:29:51;100384.81;;;3.77;99.57
71361;BME280;59166;48.908;1.870;2023-03-14T22:34:55;100384.63;;;3.72;100.00
71361;BME280;59166;48.908;1.870;2023-03-14T22:39:56;100403.38;;;3.65;100.00
71361;BME280;59166;48.908;1.870;2023-03-14T22:44:57;100399.09;;;3.58;100.00
71361;BME280;59166;48.908;1.870;2023-03-14T22:49:59;100404.44;;;3.58;100.00
71361;BME280;59166;48.908;1.870;2023-03-14T22:55:00;100399.94;;;3.52;100.00
71361;BME280;59166;48.908;1.870;2023-03-14T23:00:01;100403.03;;;3.49;100.00
71361;BME280;59166;48.908;1.870;2023-03-14T23:05:04;100391.75;;;3.47;100.00
71361;BME280;59166;48.908;1.870;2023-03-14T23:10:06;100392.97;;;3.44;100.00
71361;BME280;59166;48.908;1.870;2023-03-14T23:15:08;100397.09;;;3.47;100.00
71361;BME280;59166;48.908;1.870;2023-03-14T23:20:12;100397.53;;;3.44;100.00
71361;BME280;59166;48.908;1.870;2023-03-14T23:25:13;100386.22;;;3.42;100.00
71361;BME280;59166;48.908;1.870;2023-03-14T23:30:15;100392.97;;;3.44;100.00
71361;BME280;59166;48.908;1.870;2023-03-14T23:35:18;100396.53;;;3.32;100.00
71361;BME280;59166;48.908;1.870;2023-03-14T23:40:19;100398.78;;;3.35;100.00
71361;BME280;59166;48.908;1.870;2023-03-14T23:45:20;100390.38;;;3.31;100.00
71361;BME280;59166;48.908;1.870;2023-03-14T23:50:22;100392.59;;;3.34;100.00
71361;BME280;59166;48.908;1.870;2023-03-14T23:55:23;100401.88;;;3.32;100.00
